Time;durP1;ratioP1;P1;durP2;ratioP2;P2;SDS_P1;SDS_P2;PMS_P1;PMS_P2;Temp;Humidity;BMP_temperature;BMP_pressure;BME280_temperature;BME280_humidity;BME280_pressure;Samples;Min_cycle;Max_cycle;Signal;HPM_P1;HPM_P2
2022/11/04 00:01:03;;;;;;;0.30;0.30;;;;;;;;;;6302869;22;19938;-90
2022/11/04 00:03:29;;;;;;;0.30;0.30;;;;;;;;;;6302236;22;20006;-90
2022/11/04 00:05:55;;;;;;;0.20;0.20;;;;;;;;;;6301508;22;20070;-90
2022/11/04 00:08:24;;;;;;;0.20;0.20;;;;;;;;;;6302825;22;20026;-91
2022/11/04 00:34:59;;;;;;;0.30;0.30;;;;;;;;;;6365318;22;20022;-90
2022/11/04 00:37:26;;;;;;;0.20;0.20;;;;;;;;;;6305833;22;20090;-91
2022/11/04 00:39:52;;;;;;;0.20;0.20;;;;;;;;;;6305197;22;20047;-91
2022/11/04 00:42:18;;;;;;;0.30;0.30;;;;;;;;;;6278942;22;20121;-89
2022/11/04 00:44:44;;;;;;;0.20;0.20;;;;;;;;;;6305333;22;20002;-90
2022/11/04 00:47:10;;;;;;;0.20;0.20;;;;;;;;;;6300841;22;20026;-90
2022/11/04 00:49:36;;;;;;;0.20;0.20;;;;;;;;;;6301431;22;20030;-90
2022/11/04 00:52:02;;;;;;;0.20;0.20;;;;;;;;;;6303699;22;20211;-90
2022/11/04 00:54:28;;;;;;;0.20;0.20;;;;;;;;;;6301311;22;20019;-92
2022/11/04 00:56:59;;;;;;;0.20;0.20;;;;;;;;;;6305571;22;20019;-90
2022/11/04 01:07:15;;;;;;;0.15;0.15;;;;;;;;;;6326792;22;20007;-91
2022/11/04 01:09:45;;;;;;;0.20;0.20;;;;;;;;;;6273360;22;20000;-91
2022/11/04 01:17:26;;;;;;;0.20;0.20;;;;;;;;;;6347521;22;20026;-91
2022/11/04 01:19:52;;;;;;;0.20;0.20;;;;;;;;;;6304372;22;20022;-91
2022/11/04 01:22:24;;;;;;;0.20;0.20;;;;;;;;;;6334942;22;20016;-90
2022/11/04 01:27:26;;;;;;;0.10;0.10;;;;;;;;;;6390916;22;20018;-92
2022/11/04 01:33:00;;;;;;;0.17;0.17;;;;;;;;;;6362576;22;20047;-91
2022/11/04 01:35:35;;;;;;;0.10;0.10;;;;;;;;;;6337685;22;20021;-91
2022/11/04 01:38:04;;;;;;;0.10;0.10;;;;;;;;;;6359684;22;20092;-92
2022/11/04 01:40:35;;;;;;;0.20;0.20;;;;;;;;;;6334512;22;20059;-91
2022/11/04 01:52:53;;;;;;;0.30;0.30;;;;;;;;;;6346180;22;20019;-88
2022/11/04 01:55:28;;;;;;;0.20;0.20;;;;;;;;;;6337845;22;20019;-88
2022/11/04 01:58:21;;;;;;;0.10;0.10;;;;;;;;;;6338224;22;20456;-90
2022/11/04 02:00:48;;;;;;;0.10;0.10;;;;;;;;;;6332174;22;20019;-91
2022/11/04 02:03:23;;;;;;;0.25;0.25;;;;;;;;;;6329997;22;20014;-90
2022/11/04 02:05:50;;;;;;;0.20;0.20;;;;;;;;;;6324324;22;20105;-91
2022/11/04 02:08:16;;;;;;;0.30;0.30;;;;;;;;;;6325900;22;20019;-90
2022/11/04 02:10:48;;;;;;;0.20;0.20;;;;;;;;;;6299606;22;20037;-91
2022/11/04 02:13:17;;;;;;;0.30;0.30;;;;;;;;;;6350216;22;20019;-91
2022/11/04 02:15:52;;;;;;;0.20;0.20;;;;;;;;;;6326072;22;20019;-91
2022/11/04 02:18:23;;;;;;;0.10;0.10;;;;;;;;;;6325762;22;20046;-91
2022/11/04 02:21:08;;;;;;;0.20;0.20;;;;;;;;;;6325711;22;20046;-91
2022/11/04 02:26:31;;;;;;;0.20;0.20;;;;;;;;;;6341671;22;20019;-90
2022/11/04 02:29:06;;;;;;;0.13;0.13;;;;;;;;;;6303499;22;20015;-91
2022/11/04 02:31:44;;;;;;;0.10;0.10;;;;;;;;;;6338650;22;20066;-92
2022/11/04 02:34:16;;;;;;;0.20;0.20;;;;;;;;;;6302259;22;20046;-93
2022/11/04 02:37:02;;;;;;;0.20;0.20;;;;;;;;;;6301856;22;20025;-90
2022/11/04 02:39:48;;;;;;;0.15;0.15;;;;;;;;;;6262833;22;20036;-90
2022/11/04 02:42:39;;;;;;;0.20;0.20;;;;;;;;;;6339884;22;20018;-91
2022/11/04 02:54:10;;;;;;;0.20;0.20;;;;;;;;;;6314535;22;20386;-90
2022/11/04 02:56:56;;;;;;;0.20;0.20;;;;;;;;;;6268035;22;20026;-90
2022/11/04 02:59:26;;;;;;;0.20;0.20;;;;;;;;;;6265906;22;20015;-89
2022/11/04 03:01:53;;;;;;;0.20;0.20;;;;;;;;;;6267628;22;20099;-88
2022/11/04 03:04:23;;;;;;;0.20;0.20;;;;;;;;;;6266565;22;20049;-90
2022/11/04 03:06:50;;;;;;;0.20;0.20;;;;;;;;;;6265856;22;20448;-90
2022/11/04 03:09:17;;;;;;;0.30;0.30;;;;;;;;;;6267718;22;20023;-88
2022/11/04 03:11:47;;;;;;;0.20;0.20;;;;;;;;;;6267685;22;20022;-90
2022/11/04 03:14:38;;;;;;;0.20;0.20;;;;;;;;;;6309942;22;20052;-89
2022/11/04 03:17:42;;;;;;;0.30;0.30;;;;;;;;;;6211624;23;20032;-88
2022/11/04 03:20:13;;;;;;;0.10;0.10;;;;;;;;;;6266296;22;20026;-88
2022/11/04 03:22:42;;;;;;;0.20;0.20;;;;;;;;;;6278291;22;20003;-88
2022/11/04 03:25:08;;;;;;;0.20;0.20;;;;;;;;;;6264199;22;20023;-88
2022/11/04 03:27:42;;;;;;;0.10;0.10;;;;;;;;;;6267191;22;20010;-88
2022/11/04 03:30:10;;;;;;;0.30;0.30;;;;;;;;;;6270850;22;20019;-88
2022/11/04 03:32:37;;;;;;;0.28;0.28;;;;;;;;;;6294875;22;20015;-89
2022/11/04 03:35:03;;;;;;;0.25;0.25;;;;;;;;;;6271193;22;20022;-86
2022/11/04 03:37:29;;;;;;;0.30;0.30;;;;;;;;;;6264912;22;20022;-87
2022/11/04 03:39:56;;;;;;;0.17;0.17;;;;;;;;;;6265800;22;20018;-88
2022/11/04 03:42:26;;;;;;;0.30;0.30;;;;;;;;;;6270241;22;20015;-88
2022/11/04 03:44:53;;;;;;;0.20;0.20;;;;;;;;;;6269196;22;20019;-88
2022/11/04 03:47:21;;;;;;;0.20;0.20;;;;;;;;;;6245663;22;20023;-89
2022/11/04 03:49:48;;;;;;;0.20;0.20;;;;;;;;;;6289351;22;20020;-90
2022/11/04 04:00:53;;;;;;;0.10;0.10;;;;;;;;;;6355609;22;20030;-91
2022/11/04 04:03:29;;;;;;;0.28;0.28;;;;;;;;;;6352993;22;20319;-91
2022/11/04 04:20:33;;;;;;;0.20;0.20;;;;;;;;;;6353215;22;20018;-90
2022/11/04 04:23:01;;;;;;;0.20;0.20;;;;;;;;;;6302762;22;20023;-92
2022/11/04 04:28:18;;;;;;;0.30;0.30;;;;;;;;;;6327725;22;20023;-88
2022/11/04 04:30:45;;;;;;;0.20;0.20;;;;;;;;;;6300759;22;20046;-89
2022/11/04 04:33:18;;;;;;;0.10;0.10;;;;;;;;;;6307698;22;20042;-89
2022/11/04 04:35:56;;;;;;;0.20;0.20;;;;;;;;;;6309822;22;20014;-89
2022/11/04 04:47:02;;;;;;;0.30;0.30;;;;;;;;;;6334212;22;20027;-88
2022/11/04 04:49:33;;;;;;;0.30;0.30;;;;;;;;;;6284552;22;20030;-90
2022/11/04 04:52:00;;;;;;;0.30;0.30;;;;;;;;;;6308568;22;20014;-90
2022/11/04 04:54:28;;;;;;;0.40;0.40;;;;;;;;;;6334688;22;20026;-90
2022/11/04 04:56:54;;;;;;;0.30;0.30;;;;;;;;;;6299684;22;20018;-90
2022/11/04 04:59:25;;;;;;;0.20;0.20;;;;;;;;;;6303842;22;20507;-89
2022/11/04 05:01:54;;;;;;;0.20;0.20;;;;;;;;;;6310922;22;19999;-90
2022/11/04 05:04:22;;;;;;;0.30;0.30;;;;;;;;;;6308543;22;20019;-92
2022/11/04 05:06:55;;;;;;;0.30;0.30;;;;;;;;;;6282887;22;20038;-91
2022/11/04 05:09:24;;;;;;;0.25;0.25;;;;;;;;;;6312935;22;20007;-91
2022/11/04 05:22:35;;;;;;;0.30;0.30;;;;;;;;;;6355040;22;20041;-90
2022/11/04 05:25:01;;;;;;;0.22;0.22;;;;;;;;;;6305952;22;20014;-91
2022/11/04 05:32:38;;;;;;;0.30;0.30;;;;;;;;;;6354781;22;20030;-91
2022/11/04 05:35:05;;;;;;;0.30;0.30;;;;;;;;;;6302191;22;20033;-91
2022/11/04 05:37:31;;;;;;;0.10;0.10;;;;;;;;;;6304438;22;20050;-90
2022/11/04 05:39:57;;;;;;;0.20;0.20;;;;;;;;;;6302608;22;20006;-92
2022/11/04 05:50:18;;;;;;;0.30;0.30;;;;;;;;;;6344603;22;20027;-91
2022/11/04 05:52:44;;;;;;;0.20;0.20;;;;;;;;;;6329979;22;20046;-92
2022/11/04 06:13:21;;;;;;;0.30;0.30;;;;;;;;;;6322136;22;20027;-92
2022/11/04 06:15:47;;;;;;;0.30;0.30;;;;;;;;;;6273175;22;20019;-91
2022/11/04 06:18:15;;;;;;;0.20;0.20;;;;;;;;;;6273862;22;20030;-91
2022/11/04 06:20:41;;;;;;;0.17;0.17;;;;;;;;;;6271433;22;20049;-91
2022/11/04 06:23:07;;;;;;;0.28;0.28;;;;;;;;;;6277315;22;20023;-91
2022/11/04 06:41:14;;;;;;;0.30;0.30;;;;;;;;;;6317477;22;20068;-91
2022/11/04 06:43:40;;;;;;;0.20;0.20;;;;;;;;;;6270167;22;20015;-91
2022/11/04 06:46:21;;;;;;;0.20;0.20;;;;;;;;;;6270418;22;20030;-91
2022/11/04 06:48:50;;;;;;;0.20;0.20;;;;;;;;;;6298458;22;20019;-92
2022/11/04 07:05:13;;;;;;;0.20;0.20;;;;;;;;;;6321888;22;20023;-91
2022/11/04 07:07:39;;;;;;;0.20;0.20;;;;;;;;;;6272091;22;20023;-93
2022/11/04 07:10:06;;;;;;;0.25;0.25;;;;;;;;;;6272763;22;20023;-91
2022/11/04 07:12:33;;;;;;;0.15;0.15;;;;;;;;;;6248356;22;20023;-93
2022/11/04 07:15:00;;;;;;;0.30;0.30;;;;;;;;;;6275134;22;20056;-93
2022/11/04 08:04:14;;;;;;;0.30;0.30;;;;;;;;;;6328789;22;20084;-91
2022/11/04 08:07:13;;;;;;;0.30;0.30;;;;;;;;;;6306996;22;20009;-90
2022/11/04 08:09:40;;;;;;;0.30;0.30;;;;;;;;;;6302537;22;20061;-93
2022/11/04 08:12:11;;;;;;;0.30;0.30;;;;;;;;;;6309168;22;20054;-93
2022/11/04 08:14:41;;;;;;;0.30;0.30;;;;;;;;;;6329447;22;20109;-93
2022/11/04 08:17:07;;;;;;;0.30;0.30;;;;;;;;;;6303245;22;20023;-91
2022/11/04 08:19:33;;;;;;;0.25;0.25;;;;;;;;;;6302772;22;20047;-93
2022/11/04 08:22:18;;;;;;;0.28;0.28;;;;;;;;;;6314526;22;20006;-92
2022/11/04 08:35:32;;;;;;;0.50;0.50;;;;;;;;;;6375268;22;20005;-92
2022/11/04 08:38:12;;;;;;;0.30;0.30;;;;;;;;;;6313567;22;20023;-91
2022/11/04 08:40:59;;;;;;;0.20;0.20;;;;;;;;;;6352970;22;20057;-92
2022/11/04 08:43:33;;;;;;;0.30;0.30;;;;;;;;;;6330423;22;20023;-95
2022/11/04 08:46:01;;;;;;;0.30;0.30;;;;;;;;;;6326382;22;20007;-92
2022/11/04 08:48:28;;;;;;;0.20;0.20;;;;;;;;;;6331812;22;20019;-94
2022/11/04 08:51:03;;;;;;;0.20;0.20;;;;;;;;;;6327566;22;20019;-93
2022/11/04 08:53:30;;;;;;;0.30;0.30;;;;;;;;;;6326859;22;20094;-93
2022/11/04 08:56:29;;;;;;;0.20;0.20;;;;;;;;;;6327046;22;20157;-93
2022/11/04 08:58:57;;;;;;;0.30;0.30;;;;;;;;;;6327193;22;20022;-94
2022/11/04 10:01:27;;;;;;;0.10;0.10;;;;;;;;;;6342426;22;20050;-92
2022/11/04 10:04:02;;;;;;;0.20;0.20;;;;;;;;;;6307062;22;20019;-93
2022/11/04 10:06:29;;;;;;;;;;;;;;;;;;6308265;22;20036;-92
2022/11/04 10:09:05;;;;;;;0.30;0.30;;;;;;;;;;6334405;22;19906;-93
2022/11/04 10:11:31;;;;;;;0.22;0.22;;;;;;;;;;6307145;22;20023;-93
2022/11/04 10:14:07;;;;;;;0.20;0.20;;;;;;;;;;6307893;22;20045;-92
2022/11/04 10:16:37;;;;;;;0.22;0.22;;;;;;;;;;6335337;22;20006;-93
2022/11/04 10:19:15;;;;;;;0.30;0.30;;;;;;;;;;6337858;22;20041;-93
2022/11/04 10:21:48;;;;;;;0.20;0.20;;;;;;;;;;6309169;22;20010;-92
2022/11/04 10:24:15;;;;;;;0.20;0.20;;;;;;;;;;6311379;22;20019;-93
2022/11/04 10:26:48;;;;;;;0.20;0.20;;;;;;;;;;6332989;22;20023;-94
2022/11/04 10:29:44;;;;;;;0.10;0.10;;;;;;;;;;6307941;22;20018;-93
2022/11/04 10:32:22;;;;;;;0.30;0.30;;;;;;;;;;6307790;22;20025;-92
2022/11/04 10:34:58;;;;;;;0.20;0.20;;;;;;;;;;6273829;22;20445;-93
2022/11/04 10:37:27;;;;;;;0.20;0.20;;;;;;;;;;6312254;22;20011;-93
2022/11/04 10:40:13;;;;;;;0.20;0.20;;;;;;;;;;6311094;22;20003;-96
2022/11/04 10:51:06;;;;;;;0.20;0.20;;;;;;;;;;6351899;22;20071;-92
2022/11/04 10:53:35;;;;;;;0.28;0.28;;;;;;;;;;6364181;22;20007;-95
2022/11/04 10:56:21;;;;;;;0.25;0.25;;;;;;;;;;6332605;22;20022;-91
2022/11/04 10:59:15;;;;;;;0.20;0.20;;;;;;;;;;6332964;22;20014;-94
2022/11/04 11:07:01;;;;;;;0.10;0.10;;;;;;;;;;6333457;22;20023;-93
2022/11/04 11:09:48;;;;;;;0.20;0.20;;;;;;;;;;6308352;22;20074;-93
2022/11/04 11:41:30;;;;;;;0.20;0.20;;;;;;;;;;6289362;22;20322;-91
2022/11/04 11:44:21;;;;;;;0.20;0.20;;;;;;;;;;6284479;22;20015;-93
2022/11/04 11:54:50;;;;;;;;;;;;;;;;;;;;;
2022/11/04 12:06:02;;;;;;;0.17;0.17;;;;;;;;;;6358949;22;20027;-91
2022/11/04 12:08:48;;;;;;;0.20;0.20;;;;;;;;;;6334057;22;20019;-90
2022/11/04 12:11:19;;;;;;;0.20;0.20;;;;;;;;;;6337035;22;20031;-90
2022/11/04 12:13:50;;;;;;;0.20;0.20;;;;;;;;;;6335267;22;20003;-91
2022/11/04 12:16:31;;;;;;;0.28;0.28;;;;;;;;;;6365080;22;20006;-90
2022/11/04 12:19:17;;;;;;;0.20;0.20;;;;;;;;;;6332815;22;20030;-89
2022/11/04 12:21:48;;;;;;;0.28;0.28;;;;;;;;;;6329530;22;20108;-92
2022/11/04 12:24:20;;;;;;;0.20;0.20;;;;;;;;;;6329875;22;20046;-90
2022/11/04 12:26:54;;;;;;;0.10;0.10;;;;;;;;;;6335285;22;20014;-89
2022/11/04 12:29:54;;;;;;;0.25;0.25;;;;;;;;;;6320456;22;20030;-90
2022/11/04 12:32:55;;;;;;;0.20;0.20;;;;;;;;;;6363851;22;19998;-91
2022/11/04 12:37:58;;;;;;;0.30;0.30;;;;;;;;;;6322771;22;20072;-90
2022/11/04 12:40:29;;;;;;;0.20;0.20;;;;;;;;;;6272449;22;20120;-91
2022/11/04 12:43:12;;;;;;;0.20;0.20;;;;;;;;;;6304715;22;20023;-92
2022/11/04 12:46:01;;;;;;;0.20;0.20;;;;;;;;;;6275014;22;20035;-91
2022/11/04 12:49:03;;;;;;;0.22;0.22;;;;;;;;;;6278555;22;20010;-92
2022/11/04 13:00:41;;;;;;;0.22;0.22;;;;;;;;;;6358931;22;20029;-91
2022/11/04 13:03:46;;;;;;;0.35;0.35;;;;;;;;;;6344985;22;20018;-91
2022/11/04 13:06:15;;;;;;;0.30;0.30;;;;;;;;;;6310347;22;20019;-90
2022/11/04 13:08:58;;;;;;;0.22;0.22;;;;;;;;;;6336506;22;20014;-90
2022/11/04 13:11:35;;;;;;;0.20;0.20;;;;;;;;;;6288214;22;20003;-92
2022/11/04 13:14:22;;;;;;;0.28;0.28;;;;;;;;;;6306984;22;20010;-90
2022/11/04 13:16:59;;;;;;;0.10;0.10;;;;;;;;;;6326879;22;20054;-91
2022/11/04 13:19:44;;;;;;;0.20;0.20;;;;;;;;;;6303869;22;20019;-91
2022/11/04 13:22:58;;;;;;;0.15;0.15;;;;;;;;;;6331769;22;20017;-91
2022/11/04 13:25:41;;;;;;;0.10;0.10;;;;;;;;;;6306775;22;20030;-91
2022/11/04 13:28:26;;;;;;;0.17;0.17;;;;;;;;;;6304327;22;20027;-91
2022/11/04 13:31:14;;;;;;;0.10;0.10;;;;;;;;;;6298284;22;20010;-90
2022/11/04 13:33:50;;;;;;;0.30;0.30;;;;;;;;;;6300310;22;20070;-90
2022/11/04 13:36:32;;;;;;;0.20;0.20;;;;;;;;;;6303861;22;20023;-91
2022/11/04 13:39:05;;;;;;;0.20;0.20;;;;;;;;;;6326580;22;20019;-91
2022/11/04 13:41:50;;;;;;;0.10;0.10;;;;;;;;;;6301276;22;20019;-91
2022/11/04 13:44:30;;;;;;;0.20;0.20;;;;;;;;;;6307373;22;20007;-90
2022/11/04 13:47:04;;;;;;;0.20;0.20;;;;;;;;;;6326484;22;20265;-90
2022/11/04 13:49:36;;;;;;;0.30;0.30;;;;;;;;;;6283180;22;20023;-90
2022/11/04 13:52:13;;;;;;;0.28;0.28;;;;;;;;;;6329375;22;20026;-91
2022/11/04 13:54:40;;;;;;;0.15;0.15;;;;;;;;;;6297263;22;20020;-90
2022/11/04 13:57:11;;;;;;;0.15;0.15;;;;;;;;;;6303706;22;20045;-91
2022/11/04 13:59:39;;;;;;;0.20;0.20;;;;;;;;;;6303717;22;20023;-90
2022/11/04 14:02:12;;;;;;;0.20;0.20;;;;;;;;;;6301189;22;20007;-91
2022/11/04 14:04:44;;;;;;;0.20;0.20;;;;;;;;;;6303342;22;19999;-92
2022/11/04 14:07:13;;;;;;;0.20;0.20;;;;;;;;;;6298634;22;20001;-91
2022/11/04 14:09:50;;;;;;;0.20;0.20;;;;;;;;;;6331793;22;20003;-91
2022/11/04 14:12:29;;;;;;;0.20;0.20;;;;;;;;;;6280015;22;20045;-91
2022/11/04 14:15:17;;;;;;;0.10;0.10;;;;;;;;;;6325663;22;20043;-91
2022/11/04 14:28:10;;;;;;;0.10;0.10;;;;;;;;;;6322212;22;20019;-90
2022/11/04 14:38:29;;;;;;;0.10;0.10;;;;;;;;;;6312669;22;20034;-90
2022/11/04 14:41:16;;;;;;;0.20;0.20;;;;;;;;;;6358687;22;20009;-92
2022/11/04 14:43:53;;;;;;;0.10;0.10;;;;;;;;;;6357383;22;20019;-90
2022/11/04 14:46:22;;;;;;;0.30;0.30;;;;;;;;;;6363758;22;20023;-90
2022/11/04 14:48:54;;;;;;;0.20;0.20;;;;;;;;;;6311760;22;20059;-92
2022/11/04 14:51:24;;;;;;;0.30;0.30;;;;;;;;;;6336837;22;20029;-90
2022/11/04 15:01:55;;;;;;;0.15;0.15;;;;;;;;;;6330666;22;20003;-91
2022/11/04 15:04:26;;;;;;;0.10;0.10;;;;;;;;;;6299754;22;20003;-91
2022/11/04 15:07:03;;;;;;;0.20;0.20;;;;;;;;;;6294416;22;20027;-91
2022/11/04 15:09:34;;;;;;;0.17;0.17;;;;;;;;;;6295707;22;20025;-91
2022/11/04 15:14:59;;;;;;;0.13;0.13;;;;;;;;;;6327400;22;20007;-91
2022/11/04 15:17:28;;;;;;;0.20;0.20;;;;;;;;;;6318649;22;19999;-90
2022/11/04 15:19:59;;;;;;;0.20;0.20;;;;;;;;;;6296771;22;20046;-92
2022/11/04 15:22:26;;;;;;;0.10;0.10;;;;;;;;;;6296006;22;20023;-91
2022/11/04 15:24:52;;;;;;;0.10;0.10;;;;;;;;;;6294044;22;20019;-91
2022/11/04 15:30:27;;;;;;;0.10;0.10;;;;;;;;;;6358240;22;20009;-91
2022/11/04 15:33:17;;;;;;;0.30;0.30;;;;;;;;;;6360893;22;20090;-92
2022/11/04 15:35:43;;;;;;;0.10;0.10;;;;;;;;;;6331158;22;20001;-91
2022/11/04 15:47:33;;;;;;;0.22;0.22;;;;;;;;;;6319156;22;20270;-91
2022/11/04 15:50:22;;;;;;;0.20;0.20;;;;;;;;;;6329894;22;20025;-91
2022/11/04 15:52:51;;;;;;;0.40;0.40;;;;;;;;;;6277110;22;20027;-91
2022/11/04 15:55:23;;;;;;;0.10;0.10;;;;;;;;;;6273497;22;20075;-91
2022/11/04 15:57:50;;;;;;;0.20;0.20;;;;;;;;;;6270029;22;20030;-91
2022/11/04 16:00:24;;;;;;;0.13;0.13;;;;;;;;;;6275718;22;20003;-90
2022/11/04 16:02:58;;;;;;;0.20;0.20;;;;;;;;;;6265741;22;20003;-91
2022/11/04 16:10:50;;;;;;;0.20;0.20;;;;;;;;;;6348897;22;20007;-91
2022/11/04 16:13:16;;;;;;;0.25;0.25;;;;;;;;;;6303931;22;20044;-91
2022/11/04 16:15:45;;;;;;;0.10;0.10;;;;;;;;;;6307637;22;20014;-91
2022/11/04 16:18:44;;;;;;;0.28;0.28;;;;;;;;;;6309815;22;20022;-89
2022/11/04 16:21:29;;;;;;;0.20;0.20;;;;;;;;;;6157847;23;20041;-91
2022/11/04 16:24:07;;;;;;;0.30;0.30;;;;;;;;;;6224304;22;20026;-90
2022/11/04 16:26:38;;;;;;;0.20;0.20;;;;;;;;;;6301794;22;20023;-90
2022/11/04 16:29:09;;;;;;;0.30;0.30;;;;;;;;;;6308120;22;20026;-92
2022/11/04 16:31:38;;;;;;;0.35;0.35;;;;;;;;;;6308284;22;20003;-91
2022/11/04 16:34:11;;;;;;;0.40;0.40;;;;;;;;;;6337506;22;20048;-90
2022/11/04 16:36:37;;;;;;;0.40;0.40;;;;;;;;;;6307312;22;20034;-91
2022/11/04 16:39:07;;;;;;;0.20;0.20;;;;;;;;;;6313806;22;20022;-91
2022/11/04 16:41:40;;;;;;;0.30;0.30;;;;;;;;;;6315333;22;20021;-91
2022/11/04 16:44:14;;;;;;;0.30;0.30;;;;;;;;;;6303097;22;20023;-90
2022/11/04 16:46:40;;;;;;;0.30;0.30;;;;;;;;;;6304304;22;20050;-90
2022/11/04 16:49:06;;;;;;;0.22;0.22;;;;;;;;;;6303691;22;20027;-91
2022/11/04 16:51:33;;;;;;;0.30;0.30;;;;;;;;;;6301894;22;20471;-91
2022/11/04 16:53:59;;;;;;;0.30;0.30;;;;;;;;;;6305331;22;20029;-90
2022/11/04 16:56:27;;;;;;;0.20;0.20;;;;;;;;;;6312499;22;20010;-91
2022/11/04 17:02:51;;;;;;;0.40;0.40;;;;;;;;;;6353686;22;20005;-90
2022/11/04 17:18:30;;;;;;;0.30;0.30;;;;;;;;;;6356993;22;20068;-90
2022/11/04 17:21:05;;;;;;;0.40;0.40;;;;;;;;;;6301126;22;20007;-91
2022/11/04 17:23:31;;;;;;;0.30;0.30;;;;;;;;;;6306670;22;20014;-91
2022/11/04 17:25:58;;;;;;;0.25;0.25;;;;;;;;;;6302766;22;20112;-91
2022/11/04 17:28:25;;;;;;;0.30;0.30;;;;;;;;;;6302705;22;20376;-90
2022/11/04 17:30:52;;;;;;;0.20;0.20;;;;;;;;;;6300795;22;20444;-90
2022/11/04 17:33:25;;;;;;;0.20;0.20;;;;;;;;;;6303683;22;20044;-91
2022/11/04 17:35:53;;;;;;;0.30;0.30;;;;;;;;;;6280861;22;20048;-90
2022/11/04 17:38:19;;;;;;;0.25;0.25;;;;;;;;;;6300968;22;20106;-90
2022/11/04 17:48:53;;;;;;;0.40;0.40;;;;;;;;;;6295472;22;20459;-91
2022/11/04 17:51:26;;;;;;;0.20;0.20;;;;;;;;;;6274230;22;20015;-91
2022/11/04 17:54:17;;;;;;;0.20;0.20;;;;;;;;;;6282245;22;20056;-92
2022/11/04 18:35:55;;;;;;;0.30;0.30;;;;;;;;;;6353069;22;20030;-89
2022/11/04 19:01:44;;;;;;;0.20;0.20;;;;;;;;;;6354625;22;20452;-95
2022/11/04 19:14:35;;;;;;;0.20;0.20;;;;;;;;;;6325505;22;20392;-91
2022/11/04 19:43:09;;;;;;;0.30;0.30;;;;;;;;;;6351443;22;20023;-94
2022/11/04 19:45:39;;;;;;;0.38;0.38;;;;;;;;;;6307059;22;20018;-93
2022/11/04 19:48:07;;;;;;;0.30;0.30;;;;;;;;;;6307234;22;20019;-94
2022/11/04 20:11:20;;;;;;;0.40;0.40;;;;;;;;;;6315384;22;20014;-96
2022/11/04 20:22:20;;;;;;;0.30;0.30;;;;;;;;;;6358178;22;20019;-93
2022/11/04 20:24:49;;;;;;;0.30;0.30;;;;;;;;;;6307748;22;20057;-95
2022/11/04 20:29:56;;;;;;;0.40;0.40;;;;;;;;;;6329976;22;20372;-96
2022/11/04 20:32:47;;;;;;;0.22;0.22;;;;;;;;;;6317241;22;20023;-93
2022/11/04 20:35:14;;;;;;;0.40;0.40;;;;;;;;;;6302320;22;20016;-94
